Time;durP1;ratioP1;P1;durP2;ratioP2;P2;SDS_P1;SDS_P2;PMS_P1;PMS_P2;Temp;Humidity;BMP_temperature;BMP_pressure;BME280_temperature;BME280_humidity;BME280_pressure;Samples;Min_cycle;Max_cycle;Signal;HPM_P1;HPM_P2
2022/01/12 00:01:37;;;;;;;17.87;6.00;;;-5.00;99.90;;;;;;5074948;28;20190;-59
2022/01/12 00:04:03;;;;;;;17.40;8.17;;;-5.00;99.90;;;;;;5074998;28;20635;-58
2022/01/12 00:06:29;;;;;;;20.50;9.03;;;-5.00;99.90;;;;;;5074965;28;20189;-58
2022/01/12 00:08:55;;;;;;;15.17;6.97;;;-5.10;99.90;;;;;;5074954;28;20616;-57
2022/01/12 00:11:22;;;;;;;21.83;8.17;;;-5.00;99.90;;;;;;5075096;28;20229;-58
2022/01/12 00:13:52;;;;;;;22.00;9.17;;;-5.00;99.90;;;;;;5074826;28;20571;-57
2022/01/12 00:16:19;;;;;;;19.10;7.73;;;-5.00;99.90;;;;;;5056972;28;20167;-58
2022/01/12 00:18:45;;;;;;;13.13;6.33;;;-5.00;99.90;;;;;;5074057;28;20601;-58
2022/01/12 00:21:15;;;;;;;13.50;7.03;;;-5.00;99.90;;;;;;5074408;28;20182;-59
2022/01/12 00:23:41;;;;;;;18.27;6.90;;;-5.00;99.90;;;;;;5074192;28;20178;-60
2022/01/12 00:34:20;;;;;;;14.87;7.57;;;-4.90;99.90;;;;;;5074345;28;20173;-58
2022/01/12 00:36:46;;;;;;;15.43;7.20;;;-4.90;99.90;;;;;;5073924;28;20173;-58
2022/01/12 00:39:11;;;;;;;16.87;8.03;;;-4.90;99.90;;;;;;5074274;28;20191;-57
2022/01/12 00:41:38;;;;;;;15.27;5.40;;;-4.90;99.90;;;;;;5074139;28;20189;-63
2022/01/12 00:44:08;;;;;;;14.47;5.83;;;-4.90;99.90;;;;;;5074056;28;20192;-59
2022/01/12 00:46:35;;;;;;;23.20;7.33;;;-4.90;99.90;;;;;;5073912;28;20187;-60
2022/01/12 00:49:01;;;;;;;16.73;7.40;;;-5.00;99.90;;;;;;5073488;28;20234;-59
2022/01/12 00:51:32;;;;;;;10.17;5.80;;;-5.00;99.90;;;;;;5073627;28;20323;-59
2022/01/12 00:53:59;;;;;;;9.93;4.63;;;-4.90;99.90;;;;;;5073317;28;20552;-59
2022/01/12 00:56:25;;;;;;;19.87;8.13;;;-4.90;99.90;;;;;;5073422;28;20648;-59
2022/01/12 00:58:51;;;;;;;20.43;6.73;;;-4.90;99.90;;;;;;5072963;28;20173;-59
2022/01/12 01:01:19;;;;;;;16.00;6.70;;;-5.00;99.90;;;;;;5055458;28;20671;-69
2022/01/12 01:03:46;;;;;;;21.77;8.10;;;-5.00;99.90;;;;;;5073236;28;20173;-58
2022/01/12 01:06:12;;;;;;;14.97;6.93;;;-5.00;99.90;;;;;;5073037;28;20213;-57
2022/01/12 01:08:38;;;;;;;17.30;7.33;;;-5.00;99.90;;;;;;5073328;28;20209;-59
2022/01/12 01:11:05;;;;;;;20.23;7.80;;;-5.00;99.90;;;;;;5073003;28;20216;-60
2022/01/12 01:13:35;;;;;;;17.87;7.40;;;-5.00;99.90;;;;;;5073090;28;20652;-60
2022/01/12 01:26:51;;;;;;;9.53;5.20;;;-5.00;99.90;;;;;;5072790;28;20533;-60
2022/01/12 01:29:17;;;;;;;19.13;8.10;;;-5.00;99.90;;;;;;5072661;28;20272;-58
2022/01/12 01:31:45;;;;;;;20.87;8.37;;;-5.00;99.90;;;;;;5072475;28;20730;-59
2022/01/12 01:34:13;;;;;;;16.40;8.07;;;-5.00;99.90;;;;;;5072775;28;20213;-59
2022/01/12 01:36:51;;;;;;;19.87;8.07;;;-5.00;99.90;;;;;;5072027;28;20234;-59
2022/01/12 01:39:23;;;;;;;14.53;4.70;;;-5.00;99.90;;;;;;5072669;28;20185;-56
2022/01/12 01:41:52;;;;;;;20.87;7.80;;;-5.00;99.90;;;;;;5072523;28;20185;-58
2022/01/12 01:55:08;;;;;;;18.07;6.93;;;-5.10;99.90;;;;;;5057335;28;20283;-59
2022/01/12 01:57:35;;;;;;;19.97;9.23;;;-5.10;99.90;;;;;;5072415;28;20249;-59
2022/01/12 02:00:01;;;;;;;18.87;8.30;;;-5.10;99.90;;;;;;5072167;28;20178;-63
2022/01/12 02:02:27;;;;;;;14.30;5.77;;;-5.10;99.90;;;;;;5072186;28;20185;-60
2022/01/12 02:04:53;;;;;;;18.10;7.27;;;-5.10;99.90;;;;;;5072290;28;20266;-59
2022/01/12 02:07:18;;;;;;;16.23;6.70;;;-5.00;99.90;;;;;;5072228;28;20265;-59
2022/01/12 02:09:44;;;;;;;20.83;9.43;;;-5.10;99.90;;;;;;5070999;28;20178;-60
2022/01/12 02:12:12;;;;;;;20.33;9.80;;;-5.10;99.90;;;;;;5072196;28;20257;-57
2022/01/12 02:14:39;;;;;;;25.30;9.30;;;-5.10;99.90;;;;;;5071975;28;20629;-59
2022/01/12 02:17:18;;;;;;;22.13;10.07;;;-5.10;99.90;;;;;;5072097;28;20177;-57
2022/01/12 02:36:18;;;;;;;15.50;6.63;;;-5.10;99.90;;;;;;5052125;28;20186;-59
2022/01/12 02:41:29;;;;;;;17.67;6.67;;;-5.00;99.90;;;;;;5051918;28;20179;-57
2022/01/12 02:54:51;;;;;;;16.37;8.20;;;-5.00;99.90;;;;;;5034000;28;20538;-62
2022/01/12 02:57:17;;;;;;;23.47;8.17;;;-5.00;99.90;;;;;;5052127;28;20279;-56
2022/01/12 03:00:19;;;;;;;17.27;7.63;;;-5.00;99.90;;;;;;5051601;28;20183;-58
2022/01/12 03:02:40;;;;;;;20.60;9.13;;;-5.00;99.90;;;;;;5048271;28;20672;-57
2022/01/12 03:07:39;;;;;;;21.27;8.27;;;-5.00;99.90;;;;;;5051971;28;20615;-58
2022/01/12 03:10:07;;;;;;;24.20;10.20;;;-5.00;99.90;;;;;;5051973;28;20261;-58
2022/01/12 03:12:36;;;;;;;23.77;9.83;;;-4.90;99.90;;;;;;5051971;28;20183;-58
2022/01/12 03:15:02;;;;;;;26.53;9.77;;;-4.80;99.90;;;;;;5052155;28;20256;-58
2022/01/12 03:17:27;;;;;;;23.53;8.53;;;-4.90;99.90;;;;;;5052256;28;20188;-57
2022/01/12 03:19:53;;;;;;;16.37;5.93;;;-4.90;99.90;;;;;;5051693;28;20215;-58
2022/01/12 03:22:19;;;;;;;25.13;9.50;;;-4.80;99.90;;;;;;5054857;28;20249;-64
2022/01/12 03:24:44;;;;;;;22.17;8.80;;;-4.80;99.90;;;;;;5055777;28;20215;-59
2022/01/12 03:27:13;;;;;;;27.13;9.67;;;-4.80;99.90;;;;;;5037129;28;20202;-58
2022/01/12 03:29:42;;;;;;;14.03;6.33;;;-4.80;99.90;;;;;;5067929;28;20194;-60
2022/01/12 03:32:11;;;;;;;21.47;8.40;;;-4.80;99.90;;;;;;5074828;28;20267;-56
2022/01/12 03:34:40;;;;;;;18.97;9.10;;;-4.80;99.90;;;;;;5075100;28;20648;-59
2022/01/12 03:39:50;;;;;;;19.27;8.23;;;-4.90;99.90;;;;;;5075071;28;20173;-59
2022/01/12 03:42:19;;;;;;;13.83;6.73;;;-5.00;99.90;;;;;;5074996;28;20270;-57
2022/01/12 03:44:44;;;;;;;14.00;5.90;;;-5.20;99.90;;;;;;5075228;28;20190;-63
2022/01/12 03:47:10;;;;;;;20.07;7.03;;;-5.30;99.90;;;;;;5074640;28;20186;-56
2022/01/12 03:49:36;;;;;;;12.10;6.37;;;-5.40;99.90;;;;;;5074651;28;20226;-58
2022/01/12 03:52:02;;;;;;;13.47;5.70;;;-5.60;99.90;;;;;;5075019;28;20212;-58
2022/01/12 03:54:28;;;;;;;9.97;4.93;;;-5.60;99.90;;;;;;5075005;28;20262;-58
2022/01/12 03:56:54;;;;;;;15.33;5.23;;;-5.80;99.90;;;;;;5074991;28;20210;-59
2022/01/12 03:59:20;;;;;;;15.30;5.80;;;-5.90;99.90;;;;;;5057262;28;20201;-59
2022/01/12 04:01:46;;;;;;;16.40;6.07;;;-6.00;99.90;;;;;;5075019;28;20185;-60
2022/01/12 04:04:18;;;;;;;14.83;5.63;;;-6.10;99.90;;;;;;5074284;28;20253;-59
2022/01/12 04:09:33;;;;;;;14.33;6.17;;;-6.30;99.90;;;;;;5036292;28;20212;-57
2022/01/12 04:11:58;;;;;;;17.10;6.60;;;-6.30;99.90;;;;;;5073943;28;20676;-57
2022/01/12 04:14:24;;;;;;;15.10;7.13;;;-6.40;99.90;;;;;;5074588;28;20191;-57
2022/01/12 04:16:50;;;;;;;15.00;6.23;;;-6.50;99.90;;;;;;5074220;28;20588;-73
2022/01/12 04:19:16;;;;;;;12.57;4.83;;;-6.60;99.90;;;;;;5074553;28;20178;-66
2022/01/12 04:21:46;;;;;;;14.10;5.33;;;-6.70;99.90;;;;;;5074207;28;20213;-60
2022/01/12 04:24:13;;;;;;;12.63;5.87;;;-6.80;99.90;;;;;;5073748;28;20178;-57
2022/01/12 04:26:39;;;;;;;15.30;6.17;;;-6.80;99.90;;;;;;5073938;28;20189;-59
2022/01/12 04:29:06;;;;;;;14.67;5.90;;;-6.90;99.90;;;;;;5073396;28;20201;-58
2022/01/12 04:31:36;;;;;;;13.70;4.57;;;-7.00;99.90;;;;;;5073515;28;20205;-56
2022/01/12 04:34:04;;;;;;;14.17;5.97;;;-7.00;99.90;;;;;;5072644;28;20238;-59
2022/01/12 04:36:30;;;;;;;17.17;6.20;;;-7.00;99.90;;;;;;5073416;28;20677;-59
2022/01/12 04:38:56;;;;;;;13.13;5.00;;;-7.00;99.90;;;;;;5073106;28;20256;-58
2022/01/12 04:41:24;;;;;;;16.27;6.80;;;-7.00;99.90;;;;;;5073204;28;20182;-61
2022/01/12 04:43:50;;;;;;;12.47;5.37;;;-7.10;99.90;;;;;;5073346;28;20544;-57
2022/01/12 04:48:54;;;;;;;15.63;5.70;;;-7.20;99.90;;;;;;5072558;28;20243;-58
2022/01/12 04:51:20;;;;;;;8.20;3.40;;;-7.20;99.90;;;;;;5072996;28;20300;-59
2022/01/12 04:53:46;;;;;;;9.17;4.50;;;-7.20;99.90;;;;;;5072747;28;20209;-58
2022/01/12 04:56:12;;;;;;;7.87;4.57;;;-7.30;99.90;;;;;;5072518;28;20315;-64
2022/01/12 04:58:38;;;;;;;12.77;4.97;;;-7.30;99.90;;;;;;5072603;28;20626;-59
2022/01/12 05:01:13;;;;;;;13.93;5.60;;;-7.40;99.90;;;;;;5072417;28;20679;-59
2022/01/12 05:06:40;;;;;;;9.47;3.87;;;-7.40;99.90;;;;;;5072814;28;20536;-57
2022/01/12 05:09:16;;;;;;;13.83;4.80;;;-7.50;99.90;;;;;;5072555;28;20440;-57
2022/01/12 05:14:27;;;;;;;12.37;5.50;;;-7.50;99.90;;;;;;5072609;28;20212;-58
2022/01/12 05:16:53;;;;;;;12.00;4.53;;;-7.60;99.90;;;;;;5072697;28;20173;-67
2022/01/12 05:19:19;;;;;;;12.07;5.87;;;-7.60;99.90;;;;;;5071876;28;20182;-60
2022/01/12 05:21:45;;;;;;;12.13;5.07;;;-7.60;99.90;;;;;;5072407;28;20406;-57
2022/01/12 05:24:11;;;;;;;12.30;5.23;;;-7.70;99.90;;;;;;5071646;28;20208;-59
2022/01/12 05:26:37;;;;;;;12.67;5.70;;;-7.70;99.90;;;;;;5072294;28;20291;-56
2022/01/12 05:29:05;;;;;;;15.00;5.77;;;-7.70;99.90;;;;;;5071322;28;20695;-59
2022/01/12 05:31:30;;;;;;;12.40;4.87;;;-7.70;99.90;;;;;;5071917;28;20557;-58
2022/01/12 05:33:59;;;;;;;12.23;5.37;;;-7.80;99.90;;;;;;5071421;28;20501;-59
2022/01/12 05:36:25;;;;;;;11.77;4.87;;;-7.90;99.90;;;;;;5071415;28;20178;-60
2022/01/12 05:38:51;;;;;;;12.37;5.07;;;-8.00;99.90;;;;;;5044367;28;20850;-60
2022/01/12 05:41:17;;;;;;;12.77;4.83;;;-8.00;99.90;;;;;;5070756;28;20201;-64
2022/01/12 05:43:45;;;;;;;11.77;4.93;;;-8.00;99.90;;;;;;5050384;28;20195;-60
2022/01/12 05:46:14;;;;;;;12.93;4.93;;;-8.00;99.90;;;;;;5069932;28;20257;-60
2022/01/12 05:51:30;;;;;;;12.17;5.97;;;-8.20;99.90;;;;;;5067594;28;20237;-57
2022/01/12 05:53:56;;;;;;;13.57;5.60;;;-7.80;99.90;;;;;;5068111;28;20426;-63
2022/01/12 05:56:22;;;;;;;11.53;4.33;;;-7.80;99.90;;;;;;5069926;28;20177;-60
2022/01/12 05:58:50;;;;;;;12.33;4.90;;;-7.90;99.90;;;;;;5068529;28;20867;-63
2022/01/12 06:01:16;;;;;;;16.13;6.50;;;-8.00;99.90;;;;;;5068832;28;20425;-63
2022/01/12 06:03:42;;;;;;;15.80;5.33;;;-8.00;99.90;;;;;;5068578;28;20767;-63
2022/01/12 06:06:08;;;;;;;15.33;6.03;;;-8.00;99.90;;;;;;5050865;28;20433;-62
2022/01/12 06:08:33;;;;;;;13.57;4.90;;;-8.10;99.90;;;;;;5069511;28;20189;-60
2022/01/12 06:10:59;;;;;;;16.00;5.80;;;-8.10;99.90;;;;;;5069043;28;20810;-53
2022/01/12 06:13:25;;;;;;;10.40;4.63;;;-8.10;99.90;;;;;;5050521;28;20193;-62
2022/01/12 06:15:51;;;;;;;16.13;5.57;;;-8.10;99.90;;;;;;5070172;28;20181;-59
2022/01/12 06:18:17;;;;;;;9.63;4.70;;;-8.20;99.90;;;;;;5068592;28;20845;-59
2022/01/12 06:20:43;;;;;;;12.10;5.33;;;-8.20;99.90;;;;;;5069720;28;20237;-63
2022/01/12 06:23:09;;;;;;;6.37;3.17;;;-8.20;99.90;;;;;;5068184;28;20621;-62
2022/01/12 06:25:34;;;;;;;9.30;3.73;;;-8.20;99.90;;;;;;5069448;28;20185;-67
2022/01/12 06:28:21;;;;;;;13.67;3.90;;;-8.20;99.90;;;;;;5068498;28;20676;-61
2022/01/12 06:33:31;;;;;;;11.03;5.00;;;-8.20;99.90;;;;;;5068847;28;20401;-65
2022/01/12 06:35:56;;;;;;;14.93;5.50;;;-8.20;99.90;;;;;;5069303;28;20410;-72
2022/01/12 06:38:22;;;;;;;12.17;4.90;;;-8.20;99.90;;;;;;5051386;28;20219;-61
2022/01/12 06:40:51;;;;;;;9.73;4.77;;;-8.20;99.90;;;;;;5068498;28;20676;-65
2022/01/12 06:43:16;;;;;;;15.13;5.90;;;-8.10;99.90;;;;;;5049828;28;20250;-60
2022/01/12 06:45:42;;;;;;;16.07;6.73;;;-8.20;99.90;;;;;;5051818;28;20403;-62
2022/01/12 06:48:08;;;;;;;13.80;5.80;;;-8.20;99.90;;;;;;5067843;28;20340;-60
2022/01/12 06:50:34;;;;;;;11.77;5.77;;;-8.10;99.90;;;;;;5068867;28;20186;-61
2022/01/12 06:52:59;;;;;;;14.00;5.83;;;-8.10;99.90;;;;;;5069341;28;20192;-59
2022/01/12 06:55:25;;;;;;;11.17;4.97;;;-8.10;99.90;;;;;;5052004;28;20196;-60
2022/01/12 06:57:51;;;;;;;11.10;5.07;;;-8.10;99.90;;;;;;5074033;28;20280;-58
2022/01/12 07:00:17;;;;;;;11.23;4.80;;;-8.00;99.90;;;;;;5073456;28;20221;-62
2022/01/12 07:02:43;;;;;;;11.87;4.63;;;-8.00;99.90;;;;;;5072980;28;20529;-59
2022/01/12 07:05:09;;;;;;;12.90;5.47;;;-8.00;99.90;;;;;;5072849;28;20514;-55
2022/01/12 07:07:34;;;;;;;20.40;6.90;;;-8.00;99.90;;;;;;5072188;28;20201;-59
2022/01/12 07:10:00;;;;;;;10.57;4.67;;;-8.00;99.90;;;;;;5054207;28;20185;-58
2022/01/12 07:12:26;;;;;;;17.83;7.00;;;-7.90;99.90;;;;;;5071877;28;20247;-58
2022/01/12 07:14:52;;;;;;;12.43;5.03;;;-7.80;99.90;;;;;;5054664;28;20207;-61
2022/01/12 07:17:18;;;;;;;13.10;5.00;;;-7.80;99.90;;;;;;5071682;28;20600;-61
2022/01/12 07:19:44;;;;;;;14.70;4.87;;;-7.80;99.90;;;;;;5054565;28;20213;-55
2022/01/12 07:22:09;;;;;;;6.10;3.47;;;-7.80;99.90;;;;;;5072792;28;20186;-56
2022/01/12 07:24:35;;;;;;;20.37;8.40;;;-7.80;99.90;;;;;;5072909;28;20256;-59
2022/01/12 07:27:01;;;;;;;15.40;6.77;;;-7.70;99.90;;;;;;5072680;28;20193;-58
2022/01/12 07:29:27;;;;;;;10.57;3.80;;;-7.70;99.90;;;;;;5073614;28;20634;-58
2022/01/12 07:31:53;;;;;;;23.17;8.93;;;-7.60;99.90;;;;;;5072010;28;20462;-60
2022/01/12 07:34:18;;;;;;;11.07;4.93;;;-7.60;99.90;;;;;;5072701;28;20190;-57
2022/01/12 07:36:44;;;;;;;13.83;5.60;;;-7.50;99.90;;;;;;5072799;28;20595;-55
2022/01/12 07:39:10;;;;;;;11.17;4.57;;;-7.50;99.90;;;;;;5054658;28;20522;-57
2022/01/12 07:41:36;;;;;;;15.87;5.53;;;-7.50;99.90;;;;;;5072700;28;20205;-53
2022/01/12 07:44:02;;;;;;;13.60;5.53;;;-7.40;99.90;;;;;;5072970;28;20185;-54
2022/01/12 07:46:29;;;;;;;11.63;5.50;;;-7.30;99.90;;;;;;5072771;28;20197;-57
2022/01/12 07:48:55;;;;;;;11.70;4.40;;;-7.30;99.90;;;;;;5071892;28;20693;-61
2022/01/12 07:51:21;;;;;;;11.10;4.97;;;-7.30;99.90;;;;;;5072108;28;20472;-57
2022/01/12 07:53:46;;;;;;;12.87;4.57;;;-7.30;99.90;;;;;;5072710;28;20251;-59
2022/01/12 07:56:12;;;;;;;8.50;3.13;;;-7.30;99.90;;;;;;5072594;28;20664;-56
2022/01/12 07:58:38;;;;;;;9.87;4.27;;;-7.30;99.90;;;;;;5072534;28;20182;-57
2022/01/12 08:01:04;;;;;;;8.70;4.30;;;-7.20;99.90;;;;;;5071675;28;20220;-67
2022/01/12 08:03:30;;;;;;;13.77;4.23;;;-7.20;99.90;;;;;;5072354;28;20189;-57
2022/01/12 08:05:57;;;;;;;7.53;3.73;;;-7.10;99.90;;;;;;5071546;28;20556;-58
2022/01/12 08:08:23;;;;;;;12.47;5.73;;;-7.00;99.90;;;;;;5071138;28;20644;-59
2022/01/12 08:10:49;;;;;;;7.83;4.23;;;-7.00;99.90;;;;;;5072035;28;20571;-55
2022/01/12 08:13:14;;;;;;;11.00;4.60;;;-6.90;99.90;;;;;;5072167;28;20246;-59
2022/01/12 08:15:40;;;;;;;7.13;3.83;;;-6.90;99.90;;;;;;5072168;28;20235;-56
2022/01/12 08:18:06;;;;;;;9.30;4.43;;;-6.90;99.90;;;;;;5071828;28;20193;-56
2022/01/12 08:20:32;;;;;;;13.87;6.33;;;-6.70;99.90;;;;;;5071990;28;20197;-58
2022/01/12 08:22:58;;;;;;;12.80;5.80;;;-5.90;99.90;;;;;;5070894;28;20197;-64
2022/01/12 08:25:25;;;;;;;17.90;6.83;;;-5.80;99.90;;;;;;5071480;28;20211;-61
2022/01/12 08:27:51;;;;;;;6.90;3.23;;;-5.90;99.90;;;;;;5071867;28;20186;-57
2022/01/12 08:30:19;;;;;;;14.77;5.20;;;-5.90;99.90;;;;;;5053301;28;20598;-57
2022/01/12 08:32:46;;;;;;;12.67;5.27;;;-6.00;99.90;;;;;;5070841;28;20600;-55
2022/01/12 08:35:12;;;;;;;14.70;4.67;;;-6.10;99.90;;;;;;5053663;28;20205;-62
2022/01/12 08:37:38;;;;;;;8.63;3.93;;;-6.10;99.90;;;;;;5071675;28;20230;-62
2022/01/12 08:40:05;;;;;;;17.20;5.33;;;-6.20;99.90;;;;;;5071076;28;20193;-57
2022/01/12 08:42:30;;;;;;;7.27;3.30;;;-6.20;99.90;;;;;;5071185;28;20331;-59
2022/01/12 08:45:00;;;;;;;7.50;3.37;;;-6.20;99.90;;;;;;5071586;28;20610;-56
2022/01/12 08:47:26;;;;;;;9.87;4.37;;;-6.30;99.90;;;;;;5070111;28;20197;-56
2022/01/12 08:49:53;;;;;;;7.67;4.13;;;-6.30;99.90;;;;;;5071527;28;20181;-59
2022/01/12 08:52:18;;;;;;;13.47;4.50;;;-6.00;99.90;;;;;;5053066;28;20681;-58
2022/01/12 08:54:44;;;;;;;16.07;5.70;;;-5.80;99.90;;;;;;5071354;28;20193;-59
2022/01/12 08:57:10;;;;;;;16.63;5.33;;;-5.80;99.90;;;;;;5071177;28;20185;-58
2022/01/12 08:59:36;;;;;;;7.10;3.60;;;-5.90;99.90;;;;;;5071591;28;20613;-60
2022/01/12 09:02:02;;;;;;;9.17;4.20;;;-6.00;99.90;;;;;;5070880;28;20497;-62
2022/01/12 09:04:28;;;;;;;9.20;3.43;;;-6.00;99.90;;;;;;5070901;28;20198;-55
2022/01/12 09:06:55;;;;;;;20.07;4.97;;;-6.00;99.90;;;;;;5071370;28;20177;-59
2022/01/12 09:09:22;;;;;;;10.83;4.03;;;-5.90;99.90;;;;;;5070725;28;20205;-56
2022/01/12 09:11:48;;;;;;;14.97;5.40;;;-6.00;99.90;;;;;;5036885;28;20559;-58
2022/01/12 09:14:15;;;;;;;12.37;5.57;;;-6.00;99.90;;;;;;5052486;28;20189;-57
2022/01/12 09:16:40;;;;;;;13.87;4.00;;;-5.90;99.90;;;;;;5070768;28;20276;-57
2022/01/12 09:19:08;;;;;;;16.70;5.30;;;-5.90;99.90;;;;;;5052512;28;20577;-57
2022/01/12 09:21:34;;;;;;;12.40;5.00;;;-5.80;99.90;;;;;;5070015;28;20625;-59
2022/01/12 09:24:00;;;;;;;15.60;5.30;;;-5.80;99.90;;;;;;5070490;28;20200;-60
2022/01/12 09:26:26;;;;;;;20.67;4.70;;;-5.70;99.90;;;;;;5070376;28;20185;-57
2022/01/12 09:28:52;;;;;;;10.70;4.67;;;-5.80;99.90;;;;;;5071036;28;20616;-56
2022/01/12 09:31:18;;;;;;;13.33;5.30;;;-5.80;99.90;;;;;;5070000;28;20674;-61
2022/01/12 09:33:44;;;;;;;11.13;5.60;;;-5.80;99.90;;;;;;5070574;28;20638;-63
2022/01/12 09:36:09;;;;;;;6.83;4.20;;;-5.80;99.90;;;;;;5070860;28;20187;-60
2022/01/12 09:38:35;;;;;;;18.20;5.20;;;-5.70;99.90;;;;;;5070404;28;20280;-60
2022/01/12 09:41:02;;;;;;;17.23;5.27;;;-5.70;99.90;;;;;;5068733;28;20277;-64
2022/01/12 09:43:32;;;;;;;16.13;6.83;;;-5.60;99.90;;;;;;5070289;28;20541;-63
2022/01/12 09:45:57;;;;;;;19.03;5.73;;;-5.60;99.90;;;;;;5069715;28;20197;-77
2022/01/12 09:48:26;;;;;;;13.03;5.20;;;-5.40;99.90;;;;;;5070040;28;20237;-58
2022/01/12 09:50:53;;;;;;;14.13;7.10;;;-5.40;99.90;;;;;;5070508;28;20217;-57
2022/01/12 09:53:19;;;;;;;21.33;6.40;;;-5.30;99.90;;;;;;5069382;28;20227;-60
2022/01/12 09:55:46;;;;;;;12.50;4.97;;;-5.30;99.90;;;;;;5070592;28;20189;-62
2022/01/12 09:58:12;;;;;;;17.40;4.57;;;-5.30;99.90;;;;;;5069346;28;20195;-58
2022/01/12 10:00:37;;;;;;;13.00;4.97;;;-5.30;99.90;;;;;;5069867;28;20238;-60
2022/01/12 10:03:13;;;;;;;18.07;5.60;;;-5.20;99.90;;;;;;5069577;28;20185;-64
2022/01/12 10:05:39;;;;;;;10.57;5.67;;;-5.20;99.90;;;;;;5069105;28;20683;-60
2022/01/12 10:08:13;;;;;;;19.93;5.20;;;-5.30;99.90;;;;;;5068918;28;20280;-57
2022/01/12 10:10:41;;;;;;;8.27;3.17;;;-5.30;99.90;;;;;;5069341;28;20223;-59
2022/01/12 10:13:23;;;;;;;14.17;6.17;;;-5.30;99.90;;;;;;5069799;28;20181;-56
2022/01/12 10:15:53;;;;;;;13.97;5.80;;;-5.20;99.90;;;;;;5051263;28;20730;-56
2022/01/12 10:18:22;;;;;;;11.70;3.97;;;-5.10;99.90;;;;;;5068832;28;20207;-62
2022/01/12 10:20:48;;;;;;;13.13;5.40;;;-5.10;99.90;;;;;;5069464;28;20581;-57
2022/01/12 10:23:15;;;;;;;10.90;3.93;;;-5.20;99.90;;;;;;5050873;28;20199;-58
2022/01/12 10:25:46;;;;;;;14.23;6.90;;;-5.10;99.90;;;;;;5069260;28;20198;-56
2022/01/12 10:28:16;;;;;;;13.67;5.13;;;-5.00;99.90;;;;;;5068936;28;20214;-56
2022/01/12 10:31:01;;;;;;;13.07;4.07;;;-4.80;99.90;;;;;;5051636;28;20548;-55
2022/01/12 10:33:34;;;;;;;12.57;4.17;;;-4.80;99.90;;;;;;5073588;28;20189;-58
2022/01/12 10:36:03;;;;;;;9.17;3.77;;;-4.80;99.90;;;;;;5073594;28;20194;-57
2022/01/12 10:38:29;;;;;;;11.07;4.53;;;-4.90;99.90;;;;;;5073673;28;20579;-57
2022/01/12 10:41:03;;;;;;;13.37;4.67;;;-4.80;99.90;;;;;;5056009;28;20192;-58
2022/01/12 10:43:41;;;;;;;19.87;6.47;;;-5.00;99.90;;;;;;5074248;28;20217;-57
2022/01/12 10:46:18;;;;;;;16.83;5.70;;;-5.20;99.90;;;;;;5073210;28;20256;-61
2022/01/12 10:48:50;;;;;;;24.57;5.97;;;-5.30;99.90;;;;;;5051198;28;20726;-62
2022/01/12 10:51:19;;;;;;;14.17;5.70;;;-5.30;99.90;;;;;;5052641;28;20211;-59
2022/01/12 10:53:46;;;;;;;15.17;5.57;;;-5.20;99.90;;;;;;5053289;28;20188;-64
2022/01/12 10:56:14;;;;;;;12.93;5.57;;;-5.10;99.90;;;;;;5052991;28;20520;-59
2022/01/12 10:58:45;;;;;;;9.57;4.63;;;-5.00;99.90;;;;;;5051616;28;20192;-62
2022/01/12 11:01:12;;;;;;;13.67;5.37;;;-5.00;99.90;;;;;;5052130;28;20196;-62
2022/01/12 11:03:38;;;;;;;13.50;6.57;;;-5.10;99.90;;;;;;5051456;28;20186;-58
2022/01/12 11:06:06;;;;;;;17.30;5.87;;;-5.20;99.90;;;;;;5052943;28;20229;-55
2022/01/12 11:08:33;;;;;;;19.07;7.80;;;-5.10;99.90;;;;;;5052327;28;20186;-60
2022/01/12 11:10:59;;;;;;;25.03;7.07;;;-5.00;99.90;;;;;;5051199;28;20220;-63
2022/01/12 11:13:27;;;;;;;12.70;5.90;;;-4.90;99.90;;;;;;5053379;28;20183;-56
2022/01/12 11:15:53;;;;;;;11.13;4.77;;;-5.00;99.90;;;;;;5052474;28;20187;-54
2022/01/12 11:18:22;;;;;;;26.30;6.40;;;-5.00;99.90;;;;;;5052737;28;20198;-57
2022/01/12 11:20:50;;;;;;;14.57;5.67;;;-5.00;99.90;;;;;;5051206;28;20293;-61
2022/01/12 11:23:18;;;;;;;19.40;5.13;;;-5.00;99.90;;;;;;5052490;28;20225;-62
2022/01/12 11:25:45;;;;;;;15.10;4.47;;;-4.90;99.90;;;;;;5052943;28;20203;-58
2022/01/12 11:28:15;;;;;;;12.57;4.07;;;-4.90;99.90;;;;;;5052966;28;20183;-61
2022/01/12 11:30:52;;;;;;;12.70;4.93;;;-5.00;99.90;;;;;;5052328;28;20685;-59
2022/01/12 11:33:23;;;;;;;11.33;4.33;;;-4.90;99.90;;;;;;5050896;28;20661;-61
2022/01/12 11:35:53;;;;;;;19.00;4.50;;;-4.90;99.90;;;;;;5052546;28;20229;-56
2022/01/12 11:38:36;;;;;;;7.80;3.67;;;-4.70;99.90;;;;;;5051788;28;20550;-56
2022/01/12 11:41:12;;;;;;;13.43;4.93;;;-4.70;99.90;;;;;;5051951;28;20185;-60
2022/01/12 11:43:44;;;;;;;20.83;6.40;;;-4.70;99.90;;;;;;5052501;28;20259;-55
2022/01/12 11:46:13;;;;;;;60.87;8.73;;;-4.70;99.90;;;;;;5049731;28;20546;-60
2022/01/12 11:49:00;;;;;;;19.90;7.27;;;-4.50;99.90;;;;;;5061765;28;20678;-57
2022/01/12 11:51:52;;;;;;;14.87;6.97;;;-4.30;99.90;;;;;;5070552;28;20212;-62
2022/01/12 11:54:29;;;;;;;15.33;5.20;;;-4.10;99.90;;;;;;5067712;28;20273;-61
2022/01/12 11:57:10;;;;;;;19.50;7.17;;;-4.10;99.90;;;;;;5071719;28;20175;-57
2022/01/12 12:00:00;;;;;;;13.23;4.97;;;-4.20;99.90;;;;;;5053234;28;20192;-61
2022/01/12 12:02:35;;;;;;;28.07;6.37;;;-4.10;99.90;;;;;;5072171;28;20270;-58
2022/01/12 12:05:13;;;;;;;9.10;4.13;;;-4.20;99.90;;;;;;5071729;28;20174;-60
2022/01/12 12:07:53;;;;;;;13.10;4.70;;;-4.40;99.90;;;;;;5071927;28;20191;-63
2022/01/12 12:10:25;;;;;;;11.47;4.87;;;-4.40;99.90;;;;;;5071600;28;20195;-52
2022/01/12 12:12:57;;;;;;;12.40;5.33;;;-4.50;99.90;;;;;;5071802;28;20221;-59
2022/01/12 12:15:23;;;;;;;8.97;3.77;;;-4.80;99.90;;;;;;5071028;28;20224;-62
2022/01/12 12:17:51;;;;;;;10.77;3.80;;;-4.80;99.90;;;;;;5071352;28;20537;-62
2022/01/12 12:20:19;;;;;;;7.70;4.73;;;-4.60;99.90;;;;;;5037046;28;20190;-59
2022/01/12 12:22:47;;;;;;;17.07;5.43;;;-4.60;99.90;;;;;;5071454;28;20192;-61
2022/01/12 12:25:16;;;;;;;11.30;3.87;;;-4.00;99.90;;;;;;5071578;28;20183;-57
2022/01/12 12:27:45;;;;;;;14.03;4.97;;;-3.40;99.90;;;;;;5071919;28;20190;-59
2022/01/12 12:30:14;;;;;;;13.93;4.53;;;-3.00;99.90;;;;;;5071026;28;20275;-58
2022/01/12 12:32:46;;;;;;;9.97;4.10;;;-2.30;99.30;;;;;;5071100;28;20216;-57
2022/01/12 12:35:24;;;;;;;12.20;4.90;;;-1.80;97.70;;;;;;5071388;28;20185;-61
2022/01/12 12:38:10;;;;;;;21.33;6.57;;;-1.00;96.30;;;;;;5071212;28;20231;-60
2022/01/12 12:40:39;;;;;;;11.07;4.37;;;-1.00;94.90;;;;;;5071998;28;20218;-62
2022/01/12 12:43:08;;;;;;;14.93;6.17;;;-1.60;94.60;;;;;;5070765;28;20196;-64
2022/01/12 12:45:54;;;;;;;9.33;3.83;;;-2.70;95.80;;;;;;5071254;28;20192;-57
2022/01/12 12:48:26;;;;;;;14.47;5.10;;;-4.00;98.00;;;;;;5069890;28;20260;-59
2022/01/12 12:51:08;;;;;;;13.30;5.07;;;-4.50;99.90;;;;;;5071461;28;20210;-55
2022/01/12 12:53:43;;;;;;;18.17;5.03;;;-4.90;99.90;;;;;;5071111;28;20210;-55
2022/01/12 12:56:16;;;;;;;7.50;3.47;;;-5.00;99.90;;;;;;5070767;28;20186;-59
2022/01/12 12:58:48;;;;;;;17.47;6.40;;;-5.10;99.90;;;;;;5054339;28;20518;-63
2022/01/12 13:01:16;;;;;;;18.07;4.20;;;-5.20;99.90;;;;;;5070476;28;20535;-51
2022/01/12 13:03:54;;;;;;;11.70;5.10;;;-5.30;99.90;;;;;;5053746;28;20196;-62
2022/01/12 13:06:28;;;;;;;12.87;5.40;;;-5.30;99.90;;;;;;5070430;28;20248;-62
2022/01/12 13:08:54;;;;;;;16.67;5.43;;;-5.30;99.90;;;;;;5070359;28;20175;-61
2022/01/12 13:11:27;;;;;;;11.73;3.90;;;-5.30;99.90;;;;;;5070653;28;20739;-62
2022/01/12 13:14:03;;;;;;;15.00;4.80;;;-5.30;99.90;;;;;;5069915;28;20280;-62
2022/01/12 13:16:29;;;;;;;21.80;6.00;;;-5.30;99.90;;;;;;5069814;28;20185;-63
2022/01/12 13:19:07;;;;;;;16.03;6.03;;;-5.30;99.90;;;;;;5070920;28;20197;-62
2022/01/12 13:21:35;;;;;;;12.97;5.40;;;-5.30;99.90;;;;;;5070689;28;20594;-62
2022/01/12 13:24:01;;;;;;;16.03;5.00;;;-5.40;99.90;;;;;;5070380;28;20234;-60
2022/01/12 13:26:32;;;;;;;16.57;5.47;;;-5.40;99.90;;;;;;5071123;28;20222;-61
2022/01/12 13:29:03;;;;;;;18.10;5.77;;;-5.40;99.90;;;;;;5070676;28;20173;-60
2022/01/12 13:31:29;;;;;;;14.23;5.73;;;-5.30;99.90;;;;;;5070557;28;20605;-61
2022/01/12 13:33:58;;;;;;;16.00;5.13;;;-5.30;99.90;;;;;;5070787;28;20193;-63
2022/01/12 13:36:27;;;;;;;15.37;5.33;;;-5.30;99.90;;;;;;5070353;28;20189;-59
2022/01/12 13:38:58;;;;;;;11.80;5.10;;;-5.30;99.90;;;;;;5070472;28;20209;-63
2022/01/12 13:41:31;;;;;;;11.77;4.33;;;-5.20;99.90;;;;;;5069902;28;20665;-65
2022/01/12 13:44:01;;;;;;;11.00;4.53;;;-5.20;99.90;;;;;;5070418;28;20603;-57
2022/01/12 13:47:04;;;;;;;18.93;5.27;;;-5.10;99.90;;;;;;5052015;28;20202;-67
2022/01/12 13:49:30;;;;;;;15.50;6.13;;;-3.90;99.90;;;;;;5052093;28;20781;-63
2022/01/12 13:52:01;;;;;;;20.83;5.73;;;-2.90;99.90;;;;;;5070526;28;20268;-63
2022/01/12 13:54:41;;;;;;;20.27;6.17;;;-2.30;99.30;;;;;;5070779;28;20657;-60
2022/01/12 13:57:10;;;;;;;15.67;6.57;;;-2.00;98.40;;;;;;5052280;28;20187;-61
2022/01/12 13:59:50;;;;;;;15.60;5.27;;;-1.90;97.10;;;;;;5069492;28;20235;-56
2022/01/12 14:02:19;;;;;;;16.53;5.97;;;-2.20;97.20;;;;;;5069300;28;20194;-60
2022/01/12 14:04:53;;;;;;;18.00;6.67;;;-3.10;98.40;;;;;;5051194;28;20523;-58
2022/01/12 14:07:29;;;;;;;31.03;7.50;;;-3.90;99.90;;;;;;5070016;28;20226;-57